Terminal Aerodrome Forecast
Issued by NWS Tallahassee, FL

Home | Current Version | Previous Version | Text Only | Print | Product List | Glossary On
Versions: 1 2 3 4 5 6 7 8 9 10 11 12 13 14 15 16 17 18 19 20
000
FTUS42 KTAE 010536
TAFTLH
TAF
KTLH 010536Z 0106/0206 20004KT P6SM SCT040 BKN100
     FM011600 20010KT P6SM VCTS BKN030CB
     FM011900 22008KT 3SM TSRA BR BKN030CB BKN100
     FM012300 17004KT P6SM -SHRA VCTS BKN050CB BKN100
     FM020300 VRB03KT P6SM VCSH SCT050 BKN100=

USA.gov is the U.S. government's official web portal to all federal, state and local government web resources and services.